sensor_id;sensor_type;location;lat;lon;timestamp;temperature;humidity
28548;DHT22;68292;49.600;8.746;2023-03-23T00:40:30;19.70;45.60
28548;DHT22;68292;49.600;8.746;2023-03-23T00:43:02;19.60;45.60
28548;DHT22;68292;49.600;8.746;2023-03-23T00:45:31;19.60;45.60
28548;DHT22;68292;49.600;8.746;2023-03-23T00:48:00;19.60;45.60
28548;DHT22;68292;49.600;8.746;2023-03-23T00:50:31;19.60;45.60
28548;DHT22;68292;49.600;8.746;2023-03-23T00:52:58;19.60;45.60
28548;DHT22;68292;49.600;8.746;2023-03-23T00:55:26;19.60;45.50
28548;DHT22;68292;49.600;8.746;2023-03-23T00:57:55;19.70;45.60
28548;DHT22;68292;49.600;8.746;2023-03-23T01:00:23;19.70;45.50
28548;DHT22;68292;49.600;8.746;2023-03-23T01:02:51;19.70;45.50
28548;DHT22;68292;49.600;8.746;2023-03-23T01:05:19;19.70;45.50
28548;DHT22;68292;49.600;8.746;2023-03-23T01:07:47;19.70;45.40
28548;DHT22;68292;49.600;8.746;2023-03-23T01:10:15;19.70;45.30
28548;DHT22;68292;49.600;8.746;2023-03-23T01:12:44;19.70;45.30
28548;DHT22;68292;49.600;8.746;2023-03-23T01:15:16;19.70;45.20
28548;DHT22;68292;49.600;8.746;2023-03-23T01:17:44;19.70;45.20
28548;DHT22;68292;49.600;8.746;2023-03-23T01:20:14;19.70;45.10
28548;DHT22;68292;49.600;8.746;2023-03-23T01:22:42;19.70;45.10
28548;DHT22;68292;49.600;8.746;2023-03-23T01:25:11;19.80;45.20
28548;DHT22;68292;49.600;8.746;2023-03-23T01:27:40;19.80;45.10
28548;DHT22;68292;49.600;8.746;2023-03-23T01:30:10;19.80;45.10
28548;DHT22;68292;49.600;8.746;2023-03-23T01:32:40;19.80;45.00
28548;DHT22;68292;49.600;8.746;2023-03-23T01:35:08;19.80;45.00
28548;DHT22;68292;49.600;8.746;2023-03-23T01:37:36;19.80;45.00
28548;DHT22;68292;49.600;8.746;2023-03-23T01:40:05;19.80;45.00
28548;DHT22;68292;49.600;8.746;2023-03-23T01:42:35;19.80;45.00
28548;DHT22;68292;49.600;8.746;2023-03-23T01:45:28;19.80;44.90
28548;DHT22;68292;49.600;8.746;2023-03-23T01:48:05;19.80;44.90
28548;DHT22;68292;49.600;8.746;2023-03-23T01:50:40;19.80;44.90
28548;DHT22;68292;49.600;8.746;2023-03-23T01:53:14;19.80;44.90
28548;DHT22;68292;49.600;8.746;2023-03-23T01:55:44;19.80;44.90
28548;DHT22;68292;49.600;8.746;2023-03-23T01:58:17;19.80;44.90
28548;DHT22;68292;49.600;8.746;2023-03-23T02:00:46;19.80;44.90
28548;DHT22;68292;49.600;8.746;2023-03-23T02:03:15;19.80;44.90
28548;DHT22;68292;49.600;8.746;2023-03-23T02:05:44;19.80;44.90
28548;DHT22;68292;49.600;8.746;2023-03-23T02:08:19;19.80;44.90
28548;DHT22;68292;49.600;8.746;2023-03-23T02:10:47;19.80;44.90
28548;DHT22;68292;49.600;8.746;2023-03-23T02:13:16;19.80;44.80
28548;DHT22;68292;49.600;8.746;2023-03-23T02:15:48;19.80;44.80
28548;DHT22;68292;49.600;8.746;2023-03-23T02:18:32;19.80;44.80
28548;DHT22;68292;49.600;8.746;2023-03-23T02:28:10;19.80;44.70
28548;DHT22;68292;49.600;8.746;2023-03-23T02:30:58;19.80;44.80
28548;DHT22;68292;49.600;8.746;2023-03-23T02:33:39;19.80;44.70
28548;DHT22;68292;49.600;8.746;2023-03-23T02:36:21;19.80;44.70
28548;DHT22;68292;49.600;8.746;2023-03-23T02:38:59;19.80;44.70
28548;DHT22;68292;49.600;8.746;2023-03-23T02:41:33;19.80;44.70
28548;DHT22;68292;49.600;8.746;2023-03-23T02:44:05;19.80;44.80
28548;DHT22;68292;49.600;8.746;2023-03-23T02:46:37;19.80;44.80
28548;DHT22;68292;49.600;8.746;2023-03-23T02:49:10;19.80;44.80
28548;DHT22;68292;49.600;8.746;2023-03-23T02:51:41;19.80;44.80
28548;DHT22;68292;49.600;8.746;2023-03-23T02:54:11;19.80;44.80
28548;DHT22;68292;49.600;8.746;2023-03-23T02:56:39;19.80;44.90
28548;DHT22;68292;49.600;8.746;2023-03-23T02:59:16;19.80;44.90
28548;DHT22;68292;49.600;8.746;2023-03-23T03:01:59;19.80;44.80
28548;DHT22;68292;49.600;8.746;2023-03-23T03:04:33;19.80;44.80
28548;DHT22;68292;49.600;8.746;2023-03-23T03:07:24;19.80;44.80
28548;DHT22;68292;49.600;8.746;2023-03-23T03:09:59;19.80;44.80
28548;DHT22;68292;49.600;8.746;2023-03-23T03:12:36;19.80;44.80
28548;DHT22;68292;49.600;8.746;2023-03-23T03:15:18;19.80;44.80
28548;DHT22;68292;49.600;8.746;2023-03-23T03:17:55;19.80;44.70
28548;DHT22;68292;49.600;8.746;2023-03-23T03:20:28;19.80;44.80
28548;DHT22;68292;49.600;8.746;2023-03-23T03:22:58;19.80;44.80
28548;DHT22;68292;49.600;8.746;2023-03-23T03:25:28;19.80;44.90
28548;DHT22;68292;49.600;8.746;2023-03-23T03:27:57;19.80;44.90
28548;DHT22;68292;49.600;8.746;2023-03-23T03:30:40;19.80;44.90
28548;DHT22;68292;49.600;8.746;2023-03-23T03:33:11;19.80;44.90
28548;DHT22;68292;49.600;8.746;2023-03-23T03:35:41;19.80;44.90
28548;DHT22;68292;49.600;8.746;2023-03-23T03:38:11;19.80;45.00
28548;DHT22;68292;49.600;8.746;2023-03-23T03:40:39;19.80;45.00
28548;DHT22;68292;49.600;8.746;2023-03-23T03:43:07;19.80;45.00
28548;DHT22;68292;49.600;8.746;2023-03-23T03:45:35;19.80;45.00
28548;DHT22;68292;49.600;8.746;2023-03-23T03:48:03;19.80;45.10
28548;DHT22;68292;49.600;8.746;2023-03-23T03:50:32;19.80;45.10
28548;DHT22;68292;49.600;8.746;2023-03-23T03:53:01;19.80;45.00
28548;DHT22;68292;49.600;8.746;2023-03-23T03:55:29;19.80;45.10
28548;DHT22;68292;49.600;8.746;2023-03-23T03:58:03;19.80;45.10
28548;DHT22;68292;49.600;8.746;2023-03-23T04:00:49;19.80;45.20
28548;DHT22;68292;49.600;8.746;2023-03-23T04:03:24;19.80;45.20
28548;DHT22;68292;49.600;8.746;2023-03-23T04:06:16;19.80;45.20
28548;DHT22;68292;49.600;8.746;2023-03-23T04:08:45;19.80;45.10
28548;DHT22;68292;49.600;8.746;2023-03-23T04:11:14;19.80;45.10
28548;DHT22;68292;49.600;8.746;2023-03-23T04:13:42;19.80;45.80
28548;DHT22;68292;49.600;8.746;2023-03-23T04:16:16;19.80;45.20
28548;DHT22;68292;49.600;8.746;2023-03-23T04:18:45;19.80;45.20
28548;DHT22;68292;49.600;8.746;2023-03-23T04:21:14;19.80;45.20
28548;DHT22;68292;49.600;8.746;2023-03-23T04:23:46;19.80;45.30
28548;DHT22;68292;49.600;8.746;2023-03-23T04:26:14;19.80;45.40
28548;DHT22;68292;49.600;8.746;2023-03-23T04:28:47;19.80;45.30
28548;DHT22;68292;49.600;8.746;2023-03-23T04:31:34;19.80;45.40
28548;DHT22;68292;49.600;8.746;2023-03-23T04:34:26;19.80;45.50
28548;DHT22;68292;49.600;8.746;2023-03-23T04:36:53;19.80;45.60
28548;DHT22;68292;49.600;8.746;2023-03-23T04:39:27;19.80;45.60
28548;DHT22;68292;49.600;8.746;2023-03-23T04:42:00;19.80;45.80
28548;DHT22;68292;49.600;8.746;2023-03-23T04:44:37;19.80;46.00
28548;DHT22;68292;49.600;8.746;2023-03-23T04:47:10;19.80;46.00
28548;DHT22;68292;49.600;8.746;2023-03-23T04:49:46;19.80;46.10
28548;DHT22;68292;49.600;8.746;2023-03-23T04:52:23;19.80;46.10
28548;DHT22;68292;49.600;8.746;2023-03-23T04:54:57;19.80;46.10
28548;DHT22;68292;49.600;8.746;2023-03-23T04:57:26;19.80;46.10
28548;DHT22;68292;49.600;8.746;2023-03-23T05:00:33;19.80;46.10
28548;DHT22;68292;49.600;8.746;2023-03-23T05:03:03;19.80;46.20
28548;DHT22;68292;49.600;8.746;2023-03-23T05:05:34;19.80;46.40
28548;DHT22;68292;49.600;8.746;2023-03-23T05:08:06;19.80;46.50
28548;DHT22;68292;49.600;8.746;2023-03-23T05:10:41;19.80;46.50
28548;DHT22;68292;49.600;8.746;2023-03-23T05:13:13;19.80;46.60
28548;DHT22;68292;49.600;8.746;2023-03-23T05:15:46;19.80;46.60
28548;DHT22;68292;49.600;8.746;2023-03-23T05:18:14;19.80;46.60
28548;DHT22;68292;49.600;8.746;2023-03-23T05:20:42;19.80;46.80
28548;DHT22;68292;49.600;8.746;2023-03-23T05:23:16;19.80;47.00
28548;DHT22;68292;49.600;8.746;2023-03-23T05:25:54;19.80;46.90
28548;DHT22;68292;49.600;8.746;2023-03-23T05:28:23;19.80;47.20
28548;DHT22;68292;49.600;8.746;2023-03-23T05:31:02;19.70;47.00
28548;DHT22;68292;49.600;8.746;2023-03-23T05:33:32;19.70;47.10
28548;DHT22;68292;49.600;8.746;2023-03-23T05:36:08;19.70;47.10
28548;DHT22;68292;49.600;8.746;2023-03-23T05:38:57;19.70;47.00
28548;DHT22;68292;49.600;8.746;2023-03-23T05:41:38;19.70;46.90
28548;DHT22;68292;49.600;8.746;2023-03-23T05:44:06;19.70;46.80
28548;DHT22;68292;49.600;8.746;2023-03-23T05:46:45;19.70;46.80
28548;DHT22;68292;49.600;8.746;2023-03-23T05:49:13;19.70;46.80
28548;DHT22;68292;49.600;8.746;2023-03-23T05:51:43;19.70;46.80
28548;DHT22;68292;49.600;8.746;2023-03-23T05:54:12;19.70;46.80
28548;DHT22;68292;49.600;8.746;2023-03-23T05:56:44;19.70;46.80
28548;DHT22;68292;49.600;8.746;2023-03-23T05:59:19;19.70;46.90
28548;DHT22;68292;49.600;8.746;2023-03-23T06:01:51;19.70;46.90
28548;DHT22;68292;49.600;8.746;2023-03-23T06:04:21;19.70;46.90
28548;DHT22;68292;49.600;8.746;2023-03-23T06:07:25;19.70;47.00
28548;DHT22;68292;49.600;8.746;2023-03-23T06:09:59;19.70;46.90
28548;DHT22;68292;49.600;8.746;2023-03-23T06:12:49;19.70;46.90
28548;DHT22;68292;49.600;8.746;2023-03-23T06:15:38;19.70;47.20
28548;DHT22;68292;49.600;8.746;2023-03-23T06:18:19;19.70;47.00
28548;DHT22;68292;49.600;8.746;2023-03-23T06:21:03;19.70;47.00
28548;DHT22;68292;49.600;8.746;2023-03-23T06:23:50;19.70;47.00
28548;DHT22;68292;49.600;8.746;2023-03-23T06:26:21;19.70;47.70
28548;DHT22;68292;49.600;8.746;2023-03-23T06:28:58;19.70;47.10
28548;DHT22;68292;49.600;8.746;2023-03-23T06:31:28;19.70;47.20
28548;DHT22;68292;49.600;8.746;2023-03-23T06:33:57;19.60;47.10
28548;DHT22;68292;49.600;8.746;2023-03-23T06:36:24;19.60;47.20
28548;DHT22;68292;49.600;8.746;2023-03-23T06:39:19;19.60;47.20
28548;DHT22;68292;49.600;8.746;2023-03-23T06:41:59;19.70;47.30
28548;DHT22;68292;49.600;8.746;2023-03-23T06:44:31;19.70;47.40
28548;DHT22;68292;49.600;8.746;2023-03-23T06:46:59;19.70;47.50
28548;DHT22;68292;49.600;8.746;2023-03-23T06:49:35;19.70;47.50
28548;DHT22;68292;49.600;8.746;2023-03-23T06:52:24;19.70;47.60
28548;DHT22;68292;49.600;8.746;2023-03-23T06:54:53;19.70;47.70
28548;DHT22;68292;49.600;8.746;2023-03-23T06:57:22;19.70;47.60
28548;DHT22;68292;49.600;8.746;2023-03-23T06:59:53;19.70;47.80
28548;DHT22;68292;49.600;8.746;2023-03-23T07:02:23;19.70;47.90
28548;DHT22;68292;49.600;8.746;2023-03-23T07:04:52;19.70;47.80
28548;DHT22;68292;49.600;8.746;2023-03-23T07:07:24;19.70;47.90
28548;DHT22;68292;49.600;8.746;2023-03-23T07:10:08;19.70;47.90
28548;DHT22;68292;49.600;8.746;2023-03-23T07:12:38;19.70;47.90
28548;DHT22;68292;49.600;8.746;2023-03-23T07:15:10;19.70;48.00
28548;DHT22;68292;49.600;8.746;2023-03-23T07:17:41;19.70;48.40
28548;DHT22;68292;49.600;8.746;2023-03-23T07:20:18;19.70;48.40
28548;DHT22;68292;49.600;8.746;2023-03-23T07:22:47;19.70;48.40
28548;DHT22;68292;49.600;8.746;2023-03-23T07:25:36;19.70;48.50
28548;DHT22;68292;49.600;8.746;2023-03-23T07:28:03;19.70;48.50
28548;DHT22;68292;49.600;8.746;2023-03-23T07:30:33;19.70;48.80
28548;DHT22;68292;49.600;8.746;2023-03-23T07:33:05;19.70;48.90
28548;DHT22;68292;49.600;8.746;2023-03-23T07:35:33;19.70;49.00
28548;DHT22;68292;49.600;8.746;2023-03-23T07:38:07;19.60;48.80
28548;DHT22;68292;49.600;8.746;2023-03-23T07:40:37;19.60;48.90
28548;DHT22;68292;49.600;8.746;2023-03-23T07:43:13;19.60;49.00
28548;DHT22;68292;49.600;8.746;2023-03-23T07:46:20;19.60;49.10
28548;DHT22;68292;49.600;8.746;2023-03-23T07:49:11;19.60;49.10
28548;DHT22;68292;49.600;8.746;2023-03-23T07:51:44;19.60;49.10
28548;DHT22;68292;49.600;8.746;2023-03-23T07:54:14;19.60;49.20
28548;DHT22;68292;49.600;8.746;2023-03-23T07:56:57;19.60;49.50
28548;DHT22;68292;49.600;8.746;2023-03-23T07:59:27;19.60;50.20
28548;DHT22;68292;49.600;8.746;2023-03-23T08:01:58;19.60;49.80
28548;DHT22;68292;49.600;8.746;2023-03-23T08:04:53;19.50;49.70
28548;DHT22;68292;49.600;8.746;2023-03-23T08:07:31;19.60;49.60
28548;DHT22;68292;49.600;8.746;2023-03-23T08:10:32;19.60;49.60
28548;DHT22;68292;49.600;8.746;2023-03-23T08:13:10;19.50;49.60
28548;DHT22;68292;49.600;8.746;2023-03-23T08:15:57;19.50;49.60
28548;DHT22;68292;49.600;8.746;2023-03-23T08:18:44;19.50;49.80
28548;DHT22;68292;49.600;8.746;2023-03-23T08:21:31;19.50;49.90
28548;DHT22;68292;49.600;8.746;2023-03-23T08:24:10;19.50;49.80
28548;DHT22;68292;49.600;8.746;2023-03-23T08:26:59;19.50;49.70
28548;DHT22;68292;49.600;8.746;2023-03-23T08:29:53;19.50;49.80
28548;DHT22;68292;49.600;8.746;2023-03-23T08:32:41;19.50;49.90
28548;DHT22;68292;49.600;8.746;2023-03-23T08:35:30;19.50;49.90
28548;DHT22;68292;49.600;8.746;2023-03-23T08:38:26;19.50;49.90
28548;DHT22;68292;49.600;8.746;2023-03-23T08:41:20;19.50;49.80
28548;DHT22;68292;49.600;8.746;2023-03-23T08:44:17;19.50;50.00
28548;DHT22;68292;49.600;8.746;2023-03-23T08:46:56;19.50;49.90
28548;DHT22;68292;49.600;8.746;2023-03-23T08:49:42;19.50;49.80
28548;DHT22;68292;49.600;8.746;2023-03-23T08:52:38;19.50;49.90
28548;DHT22;68292;49.600;8.746;2023-03-23T08:55:15;19.50;50.20
28548;DHT22;68292;49.600;8.746;2023-03-23T08:58:07;19.50;50.00
28548;DHT22;68292;49.600;8.746;2023-03-23T09:00:53;19.50;50.10
28548;DHT22;68292;49.600;8.746;2023-03-23T09:03:44;19.50;50.10
28548;DHT22;68292;49.600;8.746;2023-03-23T09:06:32;19.50;50.20
28548;DHT22;68292;49.600;8.746;2023-03-23T09:09:02;19.50;50.30
28548;DHT22;68292;49.600;8.746;2023-03-23T09:11:33;19.50;50.60
28548;DHT22;68292;49.600;8.746;2023-03-23T09:14:02;19.50;50.50
28548;DHT22;68292;49.600;8.746;2023-03-23T09:16:31;19.50;50.60
28548;DHT22;68292;49.600;8.746;2023-03-23T09:18:59;19.50;50.70
28548;DHT22;68292;49.600;8.746;2023-03-23T09:21:27;19.50;50.90
28548;DHT22;68292;49.600;8.746;2023-03-23T09:23:56;19.50;51.00
28548;DHT22;68292;49.600;8.746;2023-03-23T09:26:25;19.50;51.10
28548;DHT22;68292;49.600;8.746;2023-03-23T09:28:53;19.50;51.20
28548;DHT22;68292;49.600;8.746;2023-03-23T09:31:22;19.50;51.00
28548;DHT22;68292;49.600;8.746;2023-03-23T09:33:52;19.50;51.10
28548;DHT22;68292;49.600;8.746;2023-03-23T09:36:23;19.50;51.10
28548;DHT22;68292;49.600;8.746;2023-03-23T09:38:52;19.50;51.10
28548;DHT22;68292;49.600;8.746;2023-03-23T09:44:45;19.50;51.50
28548;DHT22;68292;49.600;8.746;2023-03-23T09:47:28;19.50;51.20
28548;DHT22;68292;49.600;8.746;2023-03-23T09:50:06;19.60;51.20
28548;DHT22;68292;49.600;8.746;2023-03-23T09:52:40;19.50;51.20
28548;DHT22;68292;49.600;8.746;2023-03-23T09:55:13;19.50;51.10
28548;DHT22;68292;49.600;8.746;2023-03-23T09:57:47;19.50;51.10
28548;DHT22;68292;49.600;8.746;2023-03-23T10:00:20;19.50;51.40
28548;DHT22;68292;49.600;8.746;2023-03-23T10:02:56;19.60;51.10
28548;DHT22;68292;49.600;8.746;2023-03-23T10:05:34;19.60;51.30
28548;DHT22;68292;49.600;8.746;2023-03-23T10:08:11;19.60;51.40
28548;DHT22;68292;49.600;8.746;2023-03-23T10:10:48;19.60;51.40
28548;DHT22;68292;49.600;8.746;2023-03-23T10:13:28;19.60;51.50
28548;DHT22;68292;49.600;8.746;2023-03-23T10:16:08;19.60;51.30
28548;DHT22;68292;49.600;8.746;2023-03-23T10:18:38;19.60;51.20
28548;DHT22;68292;49.600;8.746;2023-03-23T10:21:13;19.60;51.10
28548;DHT22;68292;49.600;8.746;2023-03-23T10:23:52;19.60;51.00
28548;DHT22;68292;49.600;8.746;2023-03-23T10:26:33;19.60;51.40
28548;DHT22;68292;49.600;8.746;2023-03-23T10:29:14;19.60;51.40
28548;DHT22;68292;49.600;8.746;2023-03-23T10:31:48;19.60;51.50
28548;DHT22;68292;49.600;8.746;2023-03-23T10:34:22;19.60;51.30
28548;DHT22;68292;49.600;8.746;2023-03-23T10:36:58;19.70;51.40
28548;DHT22;68292;49.600;8.746;2023-03-23T10:39:32;19.70;51.40
28548;DHT22;68292;49.600;8.746;2023-03-23T10:42:23;19.70;51.40
28548;DHT22;68292;49.600;8.746;2023-03-23T10:44:54;19.70;51.50
28548;DHT22;68292;49.600;8.746;2023-03-23T10:47:23;19.70;51.40
28548;DHT22;68292;49.600;8.746;2023-03-23T10:49:54;19.70;51.50
28548;DHT22;68292;49.600;8.746;2023-03-23T10:52:28;19.70;51.40
28548;DHT22;68292;49.600;8.746;2023-03-23T10:55:02;19.70;51.50
28548;DHT22;68292;49.600;8.746;2023-03-23T10:57:35;19.70;51.50
28548;DHT22;68292;49.600;8.746;2023-03-23T11:00:07;19.70;51.50
28548;DHT22;68292;49.600;8.746;2023-03-23T11:02:45;19.70;51.70
28548;DHT22;68292;49.600;8.746;2023-03-23T11:05:20;19.80;51.50
28548;DHT22;68292;49.600;8.746;2023-03-23T11:07:50;19.80;51.80
28548;DHT22;68292;49.600;8.746;2023-03-23T11:10:23;19.80;51.50
28548;DHT22;68292;49.600;8.746;2023-03-23T11:12:52;19.80;51.40
28548;DHT22;68292;49.600;8.746;2023-03-23T11:15:29;19.80;51.50
28548;DHT22;68292;49.600;8.746;2023-03-23T11:17:59;19.80;51.50
28548;DHT22;68292;49.600;8.746;2023-03-23T11:20:34;19.80;51.40
28548;DHT22;68292;49.600;8.746;2023-03-23T11:23:15;19.80;51.50
28548;DHT22;68292;49.600;8.746;2023-03-23T11:25:56;19.80;51.50
28548;DHT22;68292;49.600;8.746;2023-03-23T11:28:29;19.80;51.30
28548;DHT22;68292;49.600;8.746;2023-03-23T11:31:02;19.80;51.30
28548;DHT22;68292;49.600;8.746;2023-03-23T11:33:36;19.80;51.20
28548;DHT22;68292;49.600;8.746;2023-03-23T11:36:07;19.80;51.40
28548;DHT22;68292;49.600;8.746;2023-03-23T11:38:36;19.80;51.30
28548;DHT22;68292;49.600;8.746;2023-03-23T11:41:10;19.80;51.20
28548;DHT22;68292;49.600;8.746;2023-03-23T11:43:45;19.80;51.40
28548;DHT22;68292;49.600;8.746;2023-03-23T11:46:29;19.80;51.50
28548;DHT22;68292;49.600;8.746;2023-03-23T11:49:01;19.80;51.70
28548;DHT22;68292;49.600;8.746;2023-03-23T11:51:33;19.80;51.50
28548;DHT22;68292;49.600;8.746;2023-03-23T11:54:09;19.80;51.50
28548;DHT22;68292;49.600;8.746;2023-03-23T11:56:44;19.80;51.60
28548;DHT22;68292;49.600;8.746;2023-03-23T11:59:16;19.80;51.50
28548;DHT22;68292;49.600;8.746;2023-03-23T12:01:54;19.80;51.60
28548;DHT22;68292;49.600;8.746;2023-03-23T12:04:33;19.80;51.80
28548;DHT22;68292;49.600;8.746;2023-03-23T12:07:30;19.80;51.80
28548;DHT22;68292;49.600;8.746;2023-03-23T12:10:15;19.70;51.70
28548;DHT22;68292;49.600;8.746;2023-03-23T12:12:53;19.80;51.80
28548;DHT22;68292;49.600;8.746;2023-03-23T12:15:38;19.70;51.60
28548;DHT22;68292;49.600;8.746;2023-03-23T12:18:17;19.80;51.80
28548;DHT22;68292;49.600;8.746;2023-03-23T12:21:03;19.70;51.90
28548;DHT22;68292;49.600;8.746;2023-03-23T12:23:41;19.70;52.00
28548;DHT22;68292;49.600;8.746;2023-03-23T12:26:23;19.70;51.90
28548;DHT22;68292;49.600;8.746;2023-03-23T12:29:04;19.70;52.20
28548;DHT22;68292;49.600;8.746;2023-03-23T12:31:44;19.80;52.10
28548;DHT22;68292;49.600;8.746;2023-03-23T12:34:26;19.80;52.00
28548;DHT22;68292;49.600;8.746;2023-03-23T12:37:13;19.80;52.20
28548;DHT22;68292;49.600;8.746;2023-03-23T12:40:11;19.80;52.10
28548;DHT22;68292;49.600;8.746;2023-03-23T12:42:54;19.80;52.10
28548;DHT22;68292;49.600;8.746;2023-03-23T12:45:41;19.80;52.00
28548;DHT22;68292;49.600;8.746;2023-03-23T12:48:24;19.80;52.10
28548;DHT22;68292;49.600;8.746;2023-03-23T12:51:11;19.80;52.00
28548;DHT22;68292;49.600;8.746;2023-03-23T12:53:49;19.80;52.20
28548;DHT22;68292;49.600;8.746;2023-03-23T12:56:25;19.80;52.10
28548;DHT22;68292;49.600;8.746;2023-03-23T12:59:01;19.80;52.00
28548;DHT22;68292;49.600;8.746;2023-03-23T13:01:34;19.80;52.10
28548;DHT22;68292;49.600;8.746;2023-03-23T13:04:08;19.80;52.00
28548;DHT22;68292;49.600;8.746;2023-03-23T13:06:41;19.80;52.10
28548;DHT22;68292;49.600;8.746;2023-03-23T13:09:13;19.80;52.80
28548;DHT22;68292;49.600;8.746;2023-03-23T13:11:44;19.80;52.20
28548;DHT22;68292;49.600;8.746;2023-03-23T13:14:24;19.80;52.10
28548;DHT22;68292;49.600;8.746;2023-03-23T13:17:05;19.80;52.50
28548;DHT22;68292;49.600;8.746;2023-03-23T13:19:56;19.80;52.30
28548;DHT22;68292;49.600;8.746;2023-03-23T13:22:39;19.80;52.20
28548;DHT22;68292;49.600;8.746;2023-03-23T13:25:15;19.80;52.10
28548;DHT22;68292;49.600;8.746;2023-03-23T13:27:56;19.80;52.30
28548;DHT22;68292;49.600;8.746;2023-03-23T13:30:25;19.90;52.30
28548;DHT22;68292;49.600;8.746;2023-03-23T13:33:02;19.90;52.00
28548;DHT22;68292;49.600;8.746;2023-03-23T13:35:35;19.90;52.20
28548;DHT22;68292;49.600;8.746;2023-03-23T13:38:15;19.90;52.10
28548;DHT22;68292;49.600;8.746;2023-03-23T13:40:47;19.90;52.20
28548;DHT22;68292;49.600;8.746;2023-03-23T13:43:26;19.90;52.00
28548;DHT22;68292;49.600;8.746;2023-03-23T13:45:55;19.90;52.30
28548;DHT22;68292;49.600;8.746;2023-03-23T13:48:42;19.90;52.00
28548;DHT22;68292;49.600;8.746;2023-03-23T13:51:32;19.90;52.10
28548;DHT22;68292;49.600;8.746;2023-03-23T13:54:14;19.90;52.30
28548;DHT22;68292;49.600;8.746;2023-03-23T13:56:55;19.90;52.20
28548;DHT22;68292;49.600;8.746;2023-03-23T13:59:33;19.90;52.20
28548;DHT22;68292;49.600;8.746;2023-03-23T14:02:29;19.90;52.20
28548;DHT22;68292;49.600;8.746;2023-03-23T14:05:29;19.90;52.30
28548;DHT22;68292;49.600;8.746;2023-03-23T14:08:01;19.90;52.40
28548;DHT22;68292;49.600;8.746;2023-03-23T14:10:37;19.90;52.00
28548;DHT22;68292;49.600;8.746;2023-03-23T14:13:14;19.90;52.10
28548;DHT22;68292;49.600;8.746;2023-03-23T14:15:54;19.90;52.10
28548;DHT22;68292;49.600;8.746;2023-03-23T14:18:30;19.80;52.20
28548;DHT22;68292;49.600;8.746;2023-03-23T14:21:00;19.80;52.10
28548;DHT22;68292;49.600;8.746;2023-03-23T14:23:27;19.80;52.00
28548;DHT22;68292;49.600;8.746;2023-03-23T14:26:09;19.80;52.10
28548;DHT22;68292;49.600;8.746;2023-03-23T14:28:42;19.80;52.20
28548;DHT22;68292;49.600;8.746;2023-03-23T14:31:17;19.80;52.00
28548;DHT22;68292;49.600;8.746;2023-03-23T14:33:46;19.80;52.20
28548;DHT22;68292;49.600;8.746;2023-03-23T14:36:18;19.80;52.00
28548;DHT22;68292;49.600;8.746;2023-03-23T14:38:48;19.80;52.10
28548;DHT22;68292;49.600;8.746;2023-03-23T14:41:23;19.80;52.10
28548;DHT22;68292;49.600;8.746;2023-03-23T14:43:51;19.80;52.20
28548;DHT22;68292;49.600;8.746;2023-03-23T14:46:18;19.80;52.00
28548;DHT22;68292;49.600;8.746;2023-03-23T14:48:46;19.80;52.00
28548;DHT22;68292;49.600;8.746;2023-03-23T14:51:18;19.80;52.10
28548;DHT22;68292;49.600;8.746;2023-03-23T14:53:47;19.80;52.20
28548;DHT22;68292;49.600;8.746;2023-03-23T14:56:19;19.80;52.00
28548;DHT22;68292;49.600;8.746;2023-03-23T14:58:52;19.80;52.10
28548;DHT22;68292;49.600;8.746;2023-03-23T15:01:23;19.80;52.10
28548;DHT22;68292;49.600;8.746;2023-03-23T15:03:54;19.80;52.10
28548;DHT22;68292;49.600;8.746;2023-03-23T15:06:27;19.80;52.10
28548;DHT22;68292;49.600;8.746;2023-03-23T15:08:59;19.80;52.10
28548;DHT22;68292;49.600;8.746;2023-03-23T15:11:31;19.80;52.00
28548;DHT22;68292;49.600;8.746;2023-03-23T15:14:10;19.80;52.00
28548;DHT22;68292;49.600;8.746;2023-03-23T15:16:46;19.80;52.10
28548;DHT22;68292;49.600;8.746;2023-03-23T15:19:18;19.80;52.10
28548;DHT22;68292;49.600;8.746;2023-03-23T15:21:49;19.80;52.00
28548;DHT22;68292;49.600;8.746;2023-03-23T15:24:27;19.80;52.00
28548;DHT22;68292;49.600;8.746;2023-03-23T15:27:12;19.80;52.10
28548;DHT22;68292;49.600;8.746;2023-03-23T15:29:53;19.80;52.30
28548;DHT22;68292;49.600;8.746;2023-03-23T15:32:23;19.80;52.20
28548;DHT22;68292;49.600;8.746;2023-03-23T15:34:53;19.80;52.10
28548;DHT22;68292;49.600;8.746;2023-03-23T15:37:25;19.80;52.20
28548;DHT22;68292;49.600;8.746;2023-03-23T15:39:55;19.80;52.20
28548;DHT22;68292;49.600;8.746;2023-03-23T15:42:26;19.80;52.10
28548;DHT22;68292;49.600;8.746;2023-03-23T15:45:01;19.80;52.30
28548;DHT22;68292;49.600;8.746;2023-03-23T15:47:43;19.80;52.30
28548;DHT22;68292;49.600;8.746;2023-03-23T15:50:13;19.80;52.20
28548;DHT22;68292;49.600;8.746;2023-03-23T15:52:44;19.80;52.20
28548;DHT22;68292;49.600;8.746;2023-03-23T15:55:20;19.80;52.20
28548;DHT22;68292;49.600;8.746;2023-03-23T15:57:49;19.80;52.30
28548;DHT22;68292;49.600;8.746;2023-03-23T16:00:21;19.80;52.20
28548;DHT22;68292;49.600;8.746;2023-03-23T16:02:54;19.80;52.30
28548;DHT22;68292;49.600;8.746;2023-03-23T16:05:24;19.80;52.20
28548;DHT22;68292;49.600;8.746;2023-03-23T16:07:54;19.80;52.30
28548;DHT22;68292;49.600;8.746;2023-03-23T16:10:24;19.80;52.30
28548;DHT22;68292;49.600;8.746;2023-03-23T16:12:53;19.80;52.30
28548;DHT22;68292;49.600;8.746;2023-03-23T16:15:23;19.80;52.30
28548;DHT22;68292;49.600;8.746;2023-03-23T16:17:52;19.80;52.30
28548;DHT22;68292;49.600;8.746;2023-03-23T16:20:22;19.80;52.30
28548;DHT22;68292;49.600;8.746;2023-03-23T16:22:59;19.80;52.40
28548;DHT22;68292;49.600;8.746;2023-03-23T16:25:32;19.80;52.40
28548;DHT22;68292;49.600;8.746;2023-03-23T16:28:01;19.80;52.40
28548;DHT22;68292;49.600;8.746;2023-03-23T16:30:34;19.80;52.40
28548;DHT22;68292;49.600;8.746;2023-03-23T16:33:03;19.80;52.50
28548;DHT22;68292;49.600;8.746;2023-03-23T16:35:31;19.80;52.40
28548;DHT22;68292;49.600;8.746;2023-03-23T16:38:01;19.80;52.40
28548;DHT22;68292;49.600;8.746;2023-03-23T16:40:34;19.80;52.50
28548;DHT22;68292;49.600;8.746;2023-03-23T16:43:06;19.80;52.40
28548;DHT22;68292;49.600;8.746;2023-03-23T16:45:38;19.80;52.30
28548;DHT22;68292;49.600;8.746;2023-03-23T16:48:11;19.80;52.50
28548;DHT22;68292;49.600;8.746;2023-03-23T16:50:41;19.80;52.40
28548;DHT22;68292;49.600;8.746;2023-03-23T16:53:11;19.80;52.40
28548;DHT22;68292;49.600;8.746;2023-03-23T16:55:39;19.80;52.40
28548;DHT22;68292;49.600;8.746;2023-03-23T16:58:10;19.80;52.50
28548;DHT22;68292;49.600;8.746;2023-03-23T17:00:47;19.80;52.50
28548;DHT22;68292;49.600;8.746;2023-03-23T17:03:17;19.80;52.50
28548;DHT22;68292;49.600;8.746;2023-03-23T17:05:47;19.80;52.50
28548;DHT22;68292;49.600;8.746;2023-03-23T17:08:16;19.80;52.50
28548;DHT22;68292;49.600;8.746;2023-03-23T17:10:46;19.80;52.60